createdAt,value
2017-12-10T00:00:42.210Z,10.80
2017-12-10T00:03:10.555Z,13.37
2017-12-10T00:05:40.369Z,6.77
2017-12-10T00:08:09.549Z,5.97
2017-12-10T00:10:38.523Z,6.13
2017-12-10T00:13:06.839Z,8.00
2017-12-10T00:15:35.920Z,6.93
2017-12-10T00:18:04.255Z,8.10
2017-12-10T00:20:32.581Z,7.83
2017-12-10T00:23:00.907Z,8.07
2017-12-10T00:25:29.256Z,12.30
2017-12-10T00:27:58.327Z,7.03
2017-12-10T00:30:26.661Z,9.00
2017-12-10T00:32:54.979Z,6.23
2017-12-10T00:35:23.415Z,8.03
2017-12-10T00:37:52.533Z,13.50
2017-12-10T00:40:20.889Z,14.43
2017-12-10T00:42:49.999Z,18.70
2017-12-10T00:45:18.343Z,19.20
2017-12-10T00:47:46.669Z,26.03
2017-12-10T00:50:14.998Z,22.27
2017-12-10T00:52:43.319Z,27.37
2017-12-10T00:55:11.654Z,31.73
2017-12-10T00:57:40.013Z,24.67
2017-12-10T01:00:08.345Z,24.70
2017-12-10T01:02:37.435Z,31.20
2017-12-10T01:05:05.793Z,31.37
2017-12-10T01:07:34.135Z,31.07
2017-12-10T01:10:02.497Z,32.63
2017-12-10T01:12:30.881Z,34.50
2017-12-10T01:14:59.964Z,30.77
2017-12-10T01:17:29.065Z,31.40
2017-12-10T01:19:58.179Z,29.80
2017-12-10T01:22:27.355Z,36.20
2017-12-10T01:24:56.440Z,32.17
2017-12-10T01:27:24.770Z,34.10
2017-12-10T01:29:53.094Z,33.87
2017-12-10T01:32:21.435Z,34.67
2017-12-10T01:34:49.763Z,35.00
2017-12-10T01:37:18.115Z,34.13
2017-12-10T01:39:46.424Z,35.40
2017-12-10T01:42:14.808Z,32.57
2017-12-10T01:44:43.113Z,36.20
2017-12-10T01:47:12.305Z,32.10
2017-12-10T01:49:40.623Z,32.40
2017-12-10T01:52:08.935Z,27.50
2017-12-10T01:54:37.247Z,29.83
2017-12-10T01:57:05.587Z,20.93
2017-12-10T01:59:33.915Z,22.47
2017-12-10T02:02:03.014Z,23.00
2017-12-10T02:04:32.129Z,16.13
2017-12-10T02:07:01.358Z,16.83
2017-12-10T02:09:29.698Z,17.27
2017-12-10T02:11:58.768Z,17.43
2017-12-10T02:14:27.080Z,15.10
2017-12-10T02:16:55.445Z,12.80
2017-12-10T02:19:23.767Z,13.83
2017-12-10T02:21:52.089Z,12.20
2017-12-10T02:24:20.392Z,16.27
2017-12-10T02:26:49.481Z,11.50
2017-12-10T02:29:17.806Z,15.03
2017-12-10T02:31:46.132Z,8.03
2017-12-10T02:34:14.438Z,9.30
2017-12-10T02:36:42.760Z,8.00
2017-12-10T02:39:11.073Z,9.97
2017-12-10T02:41:39.374Z,8.80
2017-12-10T02:44:08.480Z,6.03
2017-12-10T02:46:37.052Z,4.90
2017-12-10T02:49:05.381Z,4.93
2017-12-10T02:51:33.706Z,5.50
2017-12-10T02:54:02.018Z,6.03
2017-12-10T02:56:31.121Z,7.40
2017-12-10T02:59:00.236Z,6.87
2017-12-10T03:01:28.548Z,5.50
2017-12-10T03:03:56.864Z,8.03
2017-12-10T03:06:25.972Z,6.37
2017-12-10T03:08:55.036Z,4.60
2017-12-10T03:11:23.380Z,7.87
2017-12-10T03:13:51.702Z,7.67
2017-12-10T03:16:20.010Z,7.23
2017-12-10T03:18:49.138Z,9.90
2017-12-10T03:21:17.462Z,16.60
2017-12-10T03:23:45.788Z,16.37
2017-12-10T03:26:14.120Z,14.77
2017-12-10T03:28:42.464Z,15.13
2017-12-10T03:31:10.779Z,19.47
2017-12-10T03:33:39.098Z,22.77
2017-12-10T03:36:07.417Z,23.40
2017-12-10T03:38:35.762Z,25.63
2017-12-10T03:41:04.112Z,26.20
2017-12-10T03:43:32.451Z,28.77
2017-12-10T03:46:02.776Z,29.63
2017-12-10T03:48:31.120Z,30.03
2017-12-10T03:51:00.208Z,34.57
2017-12-10T03:53:29.410Z,31.70
2017-12-10T03:55:58.671Z,29.93
2017-12-10T03:58:28.544Z,28.67
2017-12-10T04:00:57.694Z,33.17
2017-12-10T04:03:26.046Z,36.60
2017-12-10T04:05:54.392Z,31.90
2017-12-10T04:08:23.458Z,39.77
2017-12-10T04:10:51.782Z,33.40
2017-12-10T04:13:20.920Z,28.60
2017-12-10T04:15:49.254Z,35.60
2017-12-10T04:18:18.348Z,37.10
2017-12-10T04:20:47.444Z,36.83
2017-12-10T04:23:16.534Z,32.70
2017-12-10T04:25:44.858Z,35.30
2017-12-10T04:28:13.187Z,35.80
2017-12-10T04:30:41.540Z,34.83
2017-12-10T04:33:09.880Z,37.87
2017-12-10T04:35:38.964Z,42.90
2017-12-10T04:38:08.064Z,43.27
2017-12-10T04:40:37.168Z,42.83
2017-12-10T04:43:06.256Z,38.20
2017-12-10T04:45:34.589Z,42.30
2017-12-10T04:48:02.885Z,40.47
2017-12-10T04:50:31.216Z,50.27
2017-12-10T04:53:00.318Z,43.13
2017-12-10T04:55:28.632Z,40.07
2017-12-10T04:57:56.970Z,46.53
2017-12-10T05:00:26.074Z,43.57
2017-12-10T05:02:55.136Z,44.60
2017-12-10T05:05:23.468Z,50.20
2017-12-10T05:07:51.794Z,50.67
2017-12-10T05:10:20.113Z,45.77
2017-12-10T05:12:49.232Z,48.40
2017-12-10T05:15:17.543Z,54.13
2017-12-10T05:17:45.859Z,53.77
2017-12-10T05:20:14.940Z,49.83
2017-12-10T05:22:43.232Z,49.00
2017-12-10T05:25:11.588Z,51.27
2017-12-10T05:27:39.884Z,45.10
2017-12-10T05:30:08.196Z,43.07
2017-12-10T05:32:37.294Z,48.87
2017-12-10T05:35:06.392Z,43.40
2017-12-10T05:37:34.720Z,48.30
2017-12-10T05:40:03.068Z,41.30
2017-12-10T05:42:31.410Z,50.17
2017-12-10T05:44:59.738Z,45.30
2017-12-10T05:47:28.062Z,46.63
2017-12-10T05:49:56.410Z,44.47
2017-12-10T05:52:24.715Z,49.37
2017-12-10T05:54:53.020Z,46.43
2017-12-10T05:57:21.342Z,50.83
2017-12-10T05:59:49.666Z,50.30
2017-12-10T06:02:17.978Z,45.13
2017-12-10T06:04:47.070Z,49.00
2017-12-10T06:07:16.164Z,50.97
2017-12-10T06:09:45.254Z,50.87
2017-12-10T06:12:15.085Z,50.67
2017-12-10T06:14:44.187Z,47.53
2017-12-10T06:17:13.286Z,46.20
2017-12-10T06:19:41.634Z,52.60
2017-12-10T06:22:09.958Z,49.33
2017-12-10T06:24:38.288Z,51.77
2017-12-10T06:27:08.395Z,49.40
2017-12-10T06:29:36.756Z,53.90
2017-12-10T06:32:05.079Z,52.73
2017-12-10T06:34:33.417Z,52.00
2017-12-10T06:37:01.722Z,58.77
2017-12-10T06:39:30.045Z,57.47
2017-12-10T06:41:59.156Z,60.47
2017-12-10T06:44:28.288Z,57.23
2017-12-10T06:46:56.635Z,48.50
2017-12-10T06:49:25.714Z,59.23
2017-12-10T06:51:54.052Z,50.83
2017-12-10T06:54:22.359Z,54.90
2017-12-10T06:56:50.710Z,51.33
2017-12-10T06:59:19.728Z,52.23
2017-12-10T07:01:48.110Z,51.63
2017-12-10T07:04:16.400Z,56.30
2017-12-10T07:06:45.617Z,61.83
2017-12-10T07:09:14.729Z,50.60
2017-12-10T07:11:43.053Z,56.20
2017-12-10T07:14:11.430Z,59.90
2017-12-10T07:16:39.832Z,51.63
2017-12-10T07:19:08.956Z,53.80
2017-12-10T07:21:37.309Z,57.47
2017-12-10T07:24:05.630Z,53.70
2017-12-10T07:26:34.734Z,48.40
2017-12-10T07:29:03.085Z,52.83
2017-12-10T07:31:31.397Z,47.70
2017-12-10T07:33:59.761Z,48.53
2017-12-10T07:36:28.859Z,50.90
2017-12-10T07:38:57.153Z,45.13
2017-12-10T07:41:26.240Z,43.80
2017-12-10T07:43:54.555Z,47.40
2017-12-10T07:46:22.867Z,46.67
2017-12-10T07:48:51.193Z,47.90
2017-12-10T07:51:20.285Z,44.07
2017-12-10T07:53:49.357Z,44.00
2017-12-10T07:56:17.693Z,42.60
2017-12-10T07:58:46.009Z,39.20
2017-12-10T08:01:14.332Z,43.10
2017-12-10T08:03:43.403Z,39.40
2017-12-10T08:06:11.739Z,35.57
2017-12-10T08:08:40.061Z,43.77
2017-12-10T08:11:08.391Z,41.77
2017-12-10T08:13:36.758Z,39.17
2017-12-10T08:16:05.091Z,44.00
2017-12-10T08:18:33.411Z,34.67
2017-12-10T08:21:02.511Z,42.70
2017-12-10T08:23:33.049Z,39.10
2017-12-10T08:26:02.127Z,39.60
2017-12-10T08:28:30.437Z,39.93
2017-12-10T08:30:58.777Z,38.60
2017-12-10T08:33:27.117Z,32.93
2017-12-10T08:35:55.443Z,42.07
2017-12-10T08:38:23.767Z,40.07
2017-12-10T08:40:52.073Z,38.23
2017-12-10T08:43:20.367Z,38.53
2017-12-10T08:45:48.709Z,32.90
2017-12-10T08:48:17.055Z,33.97
2017-12-10T08:50:45.381Z,36.57
2017-12-10T08:53:13.759Z,36.00
2017-12-10T08:55:42.061Z,37.87
2017-12-10T08:58:10.391Z,32.37
2017-12-10T09:00:39.479Z,32.37
2017-12-10T09:03:07.807Z,32.43
2017-12-10T09:05:36.125Z,37.43
2017-12-10T09:08:04.475Z,28.40
2017-12-10T09:10:32.793Z,31.70
2017-12-10T09:13:01.907Z,26.80
2017-12-10T09:15:30.977Z,26.50
2017-12-10T09:17:59.283Z,29.23
2017-12-10T09:20:28.373Z,31.90
2017-12-10T09:22:56.734Z,28.60
2017-12-10T09:25:25.069Z,24.90
2017-12-10T09:27:53.423Z,25.37
2017-12-10T09:30:22.516Z,26.83
2017-12-10T09:32:51.601Z,22.73
2017-12-10T09:35:19.980Z,24.60
2017-12-10T09:37:48.305Z,22.17
2017-12-10T09:40:16.615Z,19.23
2017-12-10T09:42:44.925Z,22.23
2017-12-10T09:45:13.231Z,20.57
2017-12-10T09:47:42.355Z,25.87
2017-12-10T09:50:10.687Z,15.20
2017-12-10T09:52:38.995Z,18.43
2017-12-10T09:55:07.291Z,19.43
2017-12-10T09:57:35.623Z,14.90
2017-12-10T10:00:03.963Z,17.57
2017-12-10T10:02:32.283Z,15.43
2017-12-10T10:05:00.603Z,17.23
2017-12-10T10:07:28.931Z,16.20
2017-12-10T10:09:57.293Z,14.93
2017-12-10T10:12:25.601Z,20.50
2017-12-10T10:14:53.939Z,18.10
2017-12-10T10:17:22.263Z,14.60
2017-12-10T10:19:50.580Z,16.13
2017-12-10T10:22:19.648Z,18.90
2017-12-10T10:24:47.989Z,18.70
2017-12-10T10:27:16.304Z,17.40
2017-12-10T10:29:44.625Z,17.23
2017-12-10T10:32:13.743Z,14.00
2017-12-10T10:34:42.052Z,17.70
2017-12-10T10:37:10.371Z,17.00
2017-12-10T10:39:40.407Z,13.40
2017-12-10T10:42:08.737Z,16.87
2017-12-10T10:44:37.055Z,27.37
2017-12-10T10:47:06.175Z,17.50
2017-12-10T10:49:35.722Z,14.50
2017-12-10T10:52:04.056Z,16.30
2017-12-10T10:54:32.399Z,13.57
2017-12-10T10:57:00.779Z,15.97
2017-12-10T10:59:29.103Z,15.70
2017-12-10T11:01:57.449Z,16.57
2017-12-10T11:04:25.824Z,18.13
2017-12-10T11:06:54.159Z,18.80
2017-12-10T11:09:22.491Z,15.30
2017-12-10T11:11:50.813Z,17.47
2017-12-10T11:14:19.146Z,14.97
2017-12-10T11:16:47.444Z,18.20
2017-12-10T11:19:17.381Z,17.10
2017-12-10T11:21:45.693Z,15.60
2017-12-10T11:24:13.996Z,11.80
2017-12-10T11:26:42.308Z,19.37
2017-12-10T11:29:11.387Z,15.57
2017-12-10T11:31:39.722Z,14.13
2017-12-10T11:34:08.011Z,16.97
2017-12-10T11:36:36.322Z,18.03
2017-12-10T11:39:04.651Z,17.20
2017-12-10T11:41:33.024Z,16.00
2017-12-10T11:44:01.369Z,14.50
2017-12-10T11:46:29.733Z,17.93
2017-12-10T11:48:58.069Z,16.10
2017-12-10T11:51:26.393Z,21.77
2017-12-10T11:53:54.704Z,18.57
2017-12-10T11:56:23.794Z,19.50
2017-12-10T11:58:54.245Z,18.60
2017-12-10T12:01:23.337Z,22.67
2017-12-10T12:03:53.490Z,19.37
2017-12-10T12:06:21.813Z,21.13
2017-12-10T12:08:50.163Z,16.97
2017-12-10T12:11:19.318Z,20.30
2017-12-10T12:13:48.446Z,18.73
2017-12-10T12:16:16.815Z,19.53
2017-12-10T12:18:45.132Z,21.37
2017-12-10T12:21:13.439Z,20.53
2017-12-10T12:23:41.755Z,22.10
2017-12-10T12:26:10.164Z,25.10
2017-12-10T12:28:38.463Z,24.90
2017-12-10T12:31:06.779Z,29.10
2017-12-10T12:33:35.104Z,25.97
2017-12-10T12:36:03.409Z,33.47
2017-12-10T12:38:31.734Z,33.13
2017-12-10T12:41:00.827Z,32.90
2017-12-10T12:43:29.904Z,35.83
2017-12-10T12:45:58.233Z,30.23
2017-12-10T12:48:26.691Z,28.93
2017-12-10T12:50:55.007Z,35.17
2017-12-10T12:53:23.329Z,37.50
2017-12-10T12:55:51.657Z,32.93
2017-12-10T12:58:19.981Z,32.27
2017-12-10T13:00:48.475Z,31.17
2017-12-10T13:03:16.833Z,33.73
2017-12-10T13:05:45.164Z,29.63
2017-12-10T13:08:13.486Z,26.93
2017-12-10T13:10:41.784Z,25.50
2017-12-10T13:13:10.100Z,27.87
2017-12-10T13:15:39.189Z,29.00
2017-12-10T13:18:08.263Z,29.07
2017-12-10T13:20:36.609Z,27.63
2017-12-10T13:23:04.949Z,32.87
2017-12-10T13:25:34.033Z,32.80
2017-12-10T13:28:02.334Z,32.43
2017-12-10T13:30:31.452Z,40.17
2017-12-10T13:32:59.799Z,42.67
2017-12-10T13:35:28.890Z,37.63
2017-12-10T13:37:57.360Z,37.97
2017-12-10T13:40:25.851Z,38.13
2017-12-10T13:42:54.141Z,41.00
2017-12-10T13:45:22.512Z,40.73
2017-12-10T13:47:50.830Z,42.90
2017-12-10T13:50:19.152Z,39.77
2017-12-10T13:52:47.472Z,49.60
2017-12-10T13:55:15.805Z,40.70
2017-12-10T13:57:44.130Z,38.53
2017-12-10T14:00:13.218Z,34.60
2017-12-10T14:02:42.304Z,34.37
2017-12-10T14:05:10.624Z,34.80
2017-12-10T14:07:39.717Z,35.77
2017-12-10T14:10:08.794Z,31.57
2017-12-10T14:12:37.094Z,34.20
2017-12-10T14:15:06.190Z,28.80
2017-12-10T14:17:35.262Z,25.50
2017-12-10T14:20:03.586Z,23.73
2017-12-10T14:22:31.952Z,21.67
2017-12-10T14:25:01.110Z,20.90
2017-12-10T14:27:29.445Z,21.87
2017-12-10T14:29:57.768Z,20.77
2017-12-10T14:32:26.120Z,20.03
2017-12-10T14:34:54.428Z,20.73
2017-12-10T14:37:22.755Z,17.10
2017-12-10T14:39:51.844Z,19.83
2017-12-10T14:42:20.952Z,18.20
2017-12-10T14:44:49.314Z,18.20
2017-12-10T14:47:17.645Z,18.60
2017-12-10T14:49:46.335Z,19.40
2017-12-10T14:52:14.671Z,25.60
2017-12-10T14:54:43.778Z,19.37
2017-12-10T14:57:13.606Z,20.50
2017-12-10T14:59:41.931Z,22.63
2017-12-10T15:02:10.287Z,20.40
2017-12-10T15:04:38.650Z,23.30
2017-12-10T15:07:06.968Z,21.17
2017-12-10T15:09:35.295Z,19.37
2017-12-10T15:12:03.697Z,24.47
2017-12-10T15:14:32.031Z,24.77
2017-12-10T15:17:00.343Z,27.80
2017-12-10T15:19:29.447Z,23.03
2017-12-10T15:21:57.755Z,25.27
2017-12-10T15:24:26.104Z,27.67
2017-12-10T15:26:55.176Z,26.13
2017-12-10T15:29:23.494Z,28.37
2017-12-10T15:31:51.811Z,22.67
2017-12-10T15:34:20.153Z,30.03
2017-12-10T15:36:48.475Z,29.70
2017-12-10T15:39:17.582Z,28.73
2017-12-10T15:41:45.923Z,27.70
2017-12-10T15:44:14.230Z,25.20
2017-12-10T15:46:42.541Z,27.17
2017-12-10T15:49:10.882Z,29.43
2017-12-10T15:51:39.189Z,28.90
2017-12-10T15:54:07.505Z,29.10
2017-12-10T15:56:36.600Z,27.17
2017-12-10T15:59:05.052Z,27.43
2017-12-10T16:01:33.394Z,26.00
2017-12-10T16:04:01.749Z,26.00
2017-12-10T16:06:30.118Z,25.40
2017-12-10T16:08:59.218Z,26.57
2017-12-10T16:11:28.394Z,25.70
2017-12-10T16:13:56.712Z,22.40
2017-12-10T16:16:25.030Z,23.20
2017-12-10T16:18:53.368Z,26.10
2017-12-10T16:21:21.696Z,27.53
2017-12-10T16:23:50.034Z,28.10
2017-12-10T16:26:18.367Z,23.30
2017-12-10T16:28:46.701Z,24.27
2017-12-10T16:31:15.025Z,23.53
2017-12-10T16:33:43.366Z,24.40
2017-12-10T16:36:11.708Z,23.40
2017-12-10T16:38:40.031Z,26.13
2017-12-10T16:41:08.345Z,25.33
2017-12-10T16:43:36.686Z,24.87
2017-12-10T16:46:05.000Z,29.40
2017-12-10T16:48:33.310Z,27.57
2017-12-10T16:51:01.630Z,24.73
2017-12-10T16:53:30.178Z,30.07
2017-12-10T16:55:58.504Z,25.70
2017-12-10T16:58:26.908Z,26.73
2017-12-10T17:00:55.228Z,30.20
2017-12-10T17:03:23.713Z,26.40
2017-12-10T17:05:52.810Z,28.73
2017-12-10T17:08:21.496Z,25.73
2017-12-10T17:10:50.591Z,27.40
2017-12-10T17:13:19.702Z,31.00
2017-12-10T17:15:48.814Z,48.60
2017-12-10T17:18:17.158Z,27.90
2017-12-10T17:20:45.479Z,35.20
2017-12-10T17:23:13.815Z,45.10
2017-12-10T17:25:42.140Z,38.40
2017-12-10T17:28:10.476Z,33.30
2017-12-10T17:30:38.796Z,30.00
2017-12-10T17:33:07.108Z,33.20
2017-12-10T17:35:35.460Z,30.60
2017-12-10T17:38:03.836Z,29.57
2017-12-10T17:40:32.190Z,32.10
2017-12-10T17:43:00.548Z,35.23
2017-12-10T17:45:28.912Z,34.50
2017-12-10T17:47:57.270Z,44.47
2017-12-10T17:50:25.612Z,28.50
2017-12-10T17:52:53.939Z,37.77
2017-12-10T17:55:22.332Z,31.13
2017-12-10T17:57:50.660Z,30.57
2017-12-10T18:00:19.772Z,30.73
2017-12-10T18:02:48.095Z,41.78
2017-12-10T18:05:16.429Z,83.17
2017-12-10T18:07:45.521Z,32.90
2017-12-10T18:10:14.638Z,30.57
2017-12-10T18:12:44.373Z,28.30
2017-12-10T18:15:12.864Z,27.80
2017-12-10T18:17:41.194Z,27.80
2017-12-10T18:20:09.549Z,30.90
2017-12-10T18:22:37.878Z,32.37
2017-12-10T18:25:06.941Z,25.67
2017-12-10T18:27:35.288Z,35.00
2017-12-10T18:30:03.596Z,33.30
2017-12-10T18:32:31.934Z,30.77
2017-12-10T18:35:01.289Z,27.63
2017-12-10T18:37:29.712Z,27.30
2017-12-10T18:39:58.211Z,25.63
2017-12-10T18:42:27.599Z,28.13
2017-12-10T18:44:56.014Z,25.57
2017-12-10T18:47:24.361Z,24.70
2017-12-10T18:49:54.340Z,22.83
2017-12-10T18:52:22.714Z,25.27
2017-12-10T18:54:51.160Z,23.67
2017-12-10T18:57:19.526Z,22.17
2017-12-10T18:59:47.905Z,27.33
2017-12-10T19:02:16.995Z,35.63
2017-12-10T19:04:45.318Z,23.70
2017-12-10T19:07:13.686Z,27.50
2017-12-10T19:09:42.033Z,24.77
2017-12-10T19:12:11.132Z,35.40
2017-12-10T19:14:40.231Z,30.67
2017-12-10T19:17:09.303Z,29.13
2017-12-10T19:19:37.631Z,21.57
2017-12-10T19:22:06.041Z,23.93
2017-12-10T19:24:34.361Z,22.50
2017-12-10T19:27:02.664Z,21.53
2017-12-10T19:29:30.983Z,19.50
2017-12-10T19:31:59.347Z,23.10
2017-12-10T19:34:27.712Z,23.27
2017-12-10T19:36:56.073Z,23.80
2017-12-10T19:39:25.173Z,25.13
2017-12-10T19:41:54.286Z,24.50
2017-12-10T19:44:23.393Z,25.67
2017-12-10T19:46:52.234Z,27.00
2017-12-10T19:49:20.625Z,22.03
2017-12-10T19:51:49.760Z,23.20
2017-12-10T19:54:18.882Z,25.20
2017-12-10T19:56:47.231Z,25.33
2017-12-10T19:59:16.338Z,26.73
2017-12-10T20:01:46.382Z,27.07
2017-12-10T20:04:15.991Z,27.37
2017-12-10T20:06:44.328Z,24.23
2017-12-10T20:09:14.242Z,23.80
2017-12-10T20:11:42.557Z,22.03
2017-12-10T20:14:10.979Z,25.17
2017-12-10T20:16:42.018Z,19.17
2017-12-10T20:19:10.727Z,21.80
2017-12-10T20:21:39.074Z,23.60
2017-12-10T20:24:07.408Z,19.70
2017-12-10T20:26:36.543Z,19.07
2017-12-10T20:29:04.873Z,17.97
2017-12-10T20:31:34.003Z,17.93
2017-12-10T20:34:02.428Z,15.40
2017-12-10T20:36:31.452Z,14.07
2017-12-10T20:41:34.390Z,15.87
2017-12-10T20:44:02.727Z,15.20
2017-12-10T20:46:31.040Z,15.47
2017-12-10T20:48:59.371Z,20.57
2017-12-10T20:51:27.735Z,16.20
2017-12-10T20:53:56.725Z,16.60
2017-12-10T20:56:25.925Z,15.23
2017-12-10T20:58:55.369Z,13.83
2017-12-10T21:01:24.876Z,14.27
2017-12-10T21:03:55.039Z,13.17
2017-12-10T21:06:23.584Z,14.60
2017-12-10T21:08:52.451Z,14.37
2017-12-10T21:11:20.817Z,12.97
2017-12-10T21:13:49.135Z,14.30
2017-12-10T21:16:18.306Z,16.83
2017-12-10T21:18:46.617Z,15.80
2017-12-10T21:21:15.272Z,15.20
2017-12-10T21:23:44.509Z,15.80
2017-12-10T21:26:12.827Z,15.93
2017-12-10T21:28:41.920Z,20.23
2017-12-10T21:31:11.035Z,22.00
2017-12-10T21:33:39.340Z,20.40
2017-12-10T21:36:07.689Z,22.93
2017-12-10T21:38:36.023Z,20.00
2017-12-10T21:41:04.361Z,21.87
2017-12-10T21:43:32.729Z,22.10
2017-12-10T21:46:02.185Z,16.23
2017-12-10T21:48:30.520Z,16.27
2017-12-10T21:50:59.643Z,15.53
2017-12-10T21:53:27.961Z,15.97
2017-12-10T21:55:56.297Z,15.60
2017-12-10T21:58:24.611Z,15.80
2017-12-10T22:00:53.006Z,16.17
2017-12-10T22:03:21.377Z,17.63
2017-12-10T22:05:49.702Z,17.60
2017-12-10T22:08:18.855Z,15.67
2017-12-10T22:10:47.211Z,16.80
2017-12-10T22:13:15.976Z,15.53
2017-12-10T22:15:45.073Z,18.30
2017-12-10T22:18:14.867Z,16.30
2017-12-10T22:20:43.188Z,15.00
2017-12-10T22:23:11.587Z,14.30
2017-12-10T22:25:39.961Z,17.60
2017-12-10T22:28:08.302Z,16.53
2017-12-10T22:30:37.440Z,18.00
2017-12-10T22:33:06.615Z,17.80
2017-12-10T22:35:35.022Z,16.03
2017-12-10T22:38:03.437Z,16.43
2017-12-10T22:40:33.291Z,24.80
2017-12-10T22:43:02.405Z,23.93
2017-12-10T22:45:30.712Z,23.83
2017-12-10T22:47:59.061Z,20.63
2017-12-10T22:50:27.364Z,21.23
2017-12-10T22:52:55.684Z,21.30
2017-12-10T22:55:24.888Z,18.70
2017-12-10T22:57:53.999Z,20.07
2017-12-10T23:00:22.326Z,18.20
2017-12-10T23:02:50.656Z,30.13
2017-12-10T23:05:26.739Z,21.27
2017-12-10T23:07:55.080Z,18.53
2017-12-10T23:10:23.416Z,17.83
2017-12-10T23:12:51.746Z,19.27
2017-12-10T23:15:20.092Z,19.23
2017-12-10T23:17:48.430Z,17.07
2017-12-10T23:20:32.378Z,17.57
2017-12-10T23:23:00.704Z,15.10
2017-12-10T23:25:29.058Z,15.37
2017-12-10T23:27:57.376Z,14.67
2017-12-10T23:30:25.742Z,14.03
2017-12-10T23:32:54.078Z,14.33
2017-12-10T23:35:22.414Z,14.80
2017-12-10T23:37:50.756Z,12.83
2017-12-10T23:40:19.096Z,16.67
2017-12-10T23:42:47.540Z,12.77
2017-12-10T23:45:15.917Z,14.00
2017-12-10T23:47:44.242Z,14.07
2017-12-10T23:50:12.563Z,12.90
2017-12-10T23:52:40.892Z,12.13
2017-12-10T23:55:09.262Z,11.77
2017-12-10T23:57:37.612Z,11.00
